Time;durP1;ratioP1;P1;durP2;ratioP2;P2;SDS_P1;SDS_P2;PMS_P1;PMS_P2;Temp;Humidity;BMP_temperature;BMP_pressure;BME280_temperature;BME280_humidity;BME280_pressure;Samples;Min_cycle;Max_cycle;Signal;HPM_P1;HPM_P2
2023/04/14 00:02:06;;;;;;;5.87;3.40;;;5.60;99.90;;;;;;5029126;28;20280;-78
2023/04/14 00:04:33;;;;;;;7.00;3.50;;;5.60;99.90;;;;;;5038130;28;20244;-77
2023/04/14 00:07:00;;;;;;;9.87;4.10;;;5.60;99.90;;;;;;5041567;28;20205;-79
2023/04/14 00:09:27;;;;;;;8.43;4.27;;;5.50;99.90;;;;;;5038132;28;20237;-78
2023/04/14 00:11:56;;;;;;;6.70;4.60;;;5.50;99.90;;;;;;5041323;28;20657;-79
2023/04/14 00:14:23;;;;;;;7.90;4.33;;;5.50;99.90;;;;;;5038106;28;20723;-79
2023/04/14 00:16:49;;;;;;;9.13;5.03;;;5.40;99.90;;;;;;5043761;28;20634;-80
2023/04/14 00:19:16;;;;;;;9.37;5.77;;;5.40;99.90;;;;;;5039527;28;20254;-78
2023/04/14 00:21:43;;;;;;;9.30;5.13;;;5.40;99.90;;;;;;5041388;28;20284;-77
2023/04/14 00:24:10;;;;;;;8.97;4.70;;;5.40;99.90;;;;;;5039824;28;20216;-79
2023/04/14 00:26:36;;;;;;;5.27;3.93;;;5.40;99.90;;;;;;5038741;28;20286;-79
2023/04/14 00:29:03;;;;;;;8.07;3.80;;;5.40;99.90;;;;;;5043704;28;20969;-78
2023/04/14 00:31:30;;;;;;;8.87;4.13;;;5.40;99.90;;;;;;5043767;28;20194;-78
2023/04/14 00:33:57;;;;;;;10.87;4.83;;;5.30;99.90;;;;;;5037419;28;20295;-78
2023/04/14 00:36:23;;;;;;;9.00;4.20;;;5.30;99.90;;;;;;5043963;28;20258;-78
2023/04/14 00:38:50;;;;;;;9.13;4.30;;;5.30;99.90;;;;;;5037164;28;20705;-78
2023/04/14 00:41:17;;;;;;;6.47;3.63;;;5.40;99.90;;;;;;5041431;28;20197;-78
2023/04/14 00:43:44;;;;;;;7.33;3.73;;;5.20;99.90;;;;;;5043333;28;20298;-78
2023/04/14 00:46:14;;;;;;;5.77;3.23;;;5.20;99.90;;;;;;5038946;28;20218;-79
2023/04/14 00:48:40;;;;;;;6.60;4.13;;;5.20;99.90;;;;;;5039551;28;20198;-78
2023/04/14 00:51:08;;;;;;;5.63;3.37;;;5.20;99.90;;;;;;5037347;28;20673;-79
2023/04/14 00:53:35;;;;;;;5.60;3.13;;;5.20;99.90;;;;;;5040040;28;20213;-79
2023/04/14 00:56:02;;;;;;;9.93;3.63;;;5.10;99.90;;;;;;5020727;28;20271;-78
2023/04/14 00:58:29;;;;;;;5.77;3.93;;;5.10;99.90;;;;;;5043382;28;20224;-80
2023/04/14 01:00:57;;;;;;;10.57;4.17;;;5.10;99.90;;;;;;5042240;28;20279;-78
2023/04/14 01:03:25;;;;;;;6.10;4.03;;;5.10;99.90;;;;;;5035172;28;20755;-78
2023/04/14 01:05:52;;;;;;;10.47;4.53;;;5.00;99.90;;;;;;5048934;28;20204;-77
2023/04/14 01:08:20;;;;;;;7.90;4.47;;;5.00;99.90;;;;;;5043898;28;20545;-78
2023/04/14 01:11:14;;;;;;;7.03;4.37;;;4.90;99.90;;;;;;5041690;28;20831;-78
2023/04/14 01:14:05;;;;;;;8.77;5.00;;;4.90;99.90;;;;;;5043179;28;20299;-78
2023/04/14 01:16:36;;;;;;;7.00;3.93;;;4.90;99.90;;;;;;5041714;28;20292;-79
2023/04/14 01:19:29;;;;;;;10.83;4.93;;;4.80;99.90;;;;;;5042881;28;20256;-78
2023/04/14 01:22:02;;;;;;;10.53;4.70;;;4.80;99.90;;;;;;5044047;28;20266;-78
2023/04/14 01:24:51;;;;;;;10.93;4.80;;;4.80;99.90;;;;;;5036278;23;20269;-92
2023/04/14 01:28:10;;;;;;;11.93;4.80;;;4.70;99.90;;;;;;4987584;28;20213;-90
2023/04/14 01:31:17;;;;;;;7.10;4.67;;;4.70;99.90;;;;;;4955033;28;20221;-92
2023/04/14 01:34:10;;;;;;;8.97;3.93;;;4.70;99.90;;;;;;5019545;28;20289;-91
2023/04/14 01:36:49;;;;;;;8.60;4.97;;;4.70;99.90;;;;;;5012054;28;20215;-90
2023/04/14 01:39:21;;;;;;;9.37;4.70;;;4.70;99.90;;;;;;5037921;28;20581;-91
2023/04/14 01:42:00;;;;;;;9.10;4.80;;;4.80;99.90;;;;;;5038119;28;20210;-92
2023/04/14 01:44:29;;;;;;;8.43;4.53;;;4.70;99.90;;;;;;5038721;28;20217;-90
2023/04/14 01:47:09;;;;;;;11.57;4.80;;;4.70;99.90;;;;;;5001239;28;20671;-91
2023/04/14 01:49:40;;;;;;;10.87;5.47;;;4.60;99.90;;;;;;5018129;28;20198;-92
2023/04/14 01:52:25;;;;;;;10.10;5.57;;;4.60;99.90;;;;;;5013319;28;20238;-91
2023/04/14 01:54:57;;;;;;;12.90;5.70;;;4.60;99.90;;;;;;5001717;28;20667;-89
2023/04/14 01:57:35;;;;;;;10.93;5.20;;;4.60;99.90;;;;;;5001594;28;20190;-90
2023/04/14 02:00:08;;;;;;;6.53;4.53;;;4.50;99.90;;;;;;4998938;28;20233;-91
2023/04/14 02:02:44;;;;;;;11.87;5.37;;;4.50;99.90;;;;;;5017556;28;20268;-90
2023/04/14 02:05:18;;;;;;;11.17;5.83;;;4.50;99.90;;;;;;5018771;28;20204;-91
2023/04/14 02:08:10;;;;;;;11.87;5.63;;;4.40;99.90;;;;;;5017484;28;20665;-92
2023/04/14 02:10:42;;;;;;;10.53;5.40;;;4.50;99.90;;;;;;5017704;28;20656;-92
2023/04/14 02:13:19;;;;;;;10.90;5.73;;;4.60;99.90;;;;;;5017221;28;20205;-90
2023/04/14 02:15:49;;;;;;;10.57;5.47;;;4.40;99.90;;;;;;5020143;28;20205;-90
2023/04/14 02:18:24;;;;;;;11.90;6.77;;;4.40;99.90;;;;;;5032291;28;20283;-91
2023/04/14 02:20:56;;;;;;;13.63;7.00;;;4.30;99.90;;;;;;5017848;28;20239;-90
2023/04/14 02:23:24;;;;;;;12.57;7.00;;;4.30;99.90;;;;;;5018097;28;20253;-91
2023/04/14 02:26:21;;;;;;;15.50;6.93;;;4.40;99.90;;;;;;5002225;28;20209;-92
2023/04/14 02:29:30;;;;;;;14.63;7.00;;;4.30;99.90;;;;;;5001481;28;20259;-92
2023/04/14 02:32:21;;;;;;;15.97;8.63;;;4.30;99.90;;;;;;5002205;28;20201;-90
2023/04/14 02:35:10;;;;;;;21.13;9.90;;;4.20;99.90;;;;;;5021074;28;20198;-91
2023/04/14 02:37:41;;;;;;;21.30;9.93;;;4.20;99.90;;;;;;5013606;28;20199;-89
2023/04/14 02:40:30;;;;;;;23.00;11.13;;;4.20;99.90;;;;;;5020837;28;20558;-93
2023/04/14 02:43:29;;;;;;;26.33;11.73;;;4.10;99.90;;;;;;5021368;28;20217;-89
2023/04/14 02:46:04;;;;;;;26.43;11.87;;;4.20;99.90;;;;;;5031809;28;20225;-92
2023/04/14 02:48:34;;;;;;;23.93;12.17;;;4.20;99.90;;;;;;5029585;28;20191;-91
2023/04/14 02:51:04;;;;;;;28.70;11.33;;;4.20;99.90;;;;;;5037869;28;20228;-91
2023/04/14 02:53:32;;;;;;;25.47;11.77;;;4.20;99.90;;;;;;5035165;28;20194;-90
2023/04/14 02:55:59;;;;;;;27.20;10.90;;;4.20;99.90;;;;;;5024876;28;20238;-92
2023/04/14 02:58:57;;;;;;;21.93;10.23;;;4.10;99.90;;;;;;5021195;28;20228;-90
2023/04/14 03:01:32;;;;;;;23.70;9.80;;;4.10;99.90;;;;;;5021469;28;20202;-90
2023/04/14 03:04:00;;;;;;;17.43;9.27;;;4.10;99.90;;;;;;5038101;28;20207;-90
2023/04/14 03:06:30;;;;;;;23.47;9.93;;;4.10;99.90;;;;;;5023259;28;20195;-92
2023/04/14 03:09:07;;;;;;;19.10;9.67;;;4.10;99.90;;;;;;5024632;28;20286;-91
2023/04/14 03:11:44;;;;;;;15.23;8.93;;;4.10;99.90;;;;;;5022438;28;20203;-90
2023/04/14 03:14:16;;;;;;;15.97;9.27;;;4.10;99.90;;;;;;5018192;28;20301;-90
2023/04/14 03:17:08;;;;;;;18.30;8.43;;;4.00;99.90;;;;;;5028273;28;20248;-90
2023/04/14 03:19:46;;;;;;;17.23;8.33;;;3.90;99.90;;;;;;5040278;28;20237;-91
2023/04/14 03:22:19;;;;;;;18.20;8.27;;;4.00;99.90;;;;;;5031854;28;20213;-92
2023/04/14 03:24:48;;;;;;;16.90;7.97;;;4.10;99.90;;;;;;5016640;28;20250;-90
2023/04/14 03:27:21;;;;;;;16.90;7.60;;;4.00;99.90;;;;;;5033442;28;20210;-91
2023/04/14 03:29:51;;;;;;;15.27;7.27;;;4.00;99.90;;;;;;5031753;28;20221;-91
2023/04/14 03:32:25;;;;;;;19.57;7.47;;;4.00;99.90;;;;;;5025317;28;20232;-91
2023/04/14 03:34:56;;;;;;;16.13;7.03;;;4.00;99.90;;;;;;5017427;28;20272;-92
2023/04/14 03:37:26;;;;;;;12.13;6.63;;;3.90;99.90;;;;;;5021274;28;20220;-91
2023/04/14 03:39:59;;;;;;;11.27;6.00;;;3.90;99.90;;;;;;5026531;28;20236;-89
2023/04/14 03:42:35;;;;;;;12.27;6.10;;;3.90;99.90;;;;;;5027889;28;20208;-92
2023/04/14 03:45:03;;;;;;;11.13;5.60;;;3.80;99.90;;;;;;5034038;28;20265;-92
2023/04/14 03:47:32;;;;;;;13.53;5.73;;;3.80;99.90;;;;;;5033982;28;20229;-90
2023/04/14 03:50:03;;;;;;;12.27;6.20;;;3.80;99.90;;;;;;5030813;28;20235;-91
2023/04/14 03:52:34;;;;;;;12.53;5.80;;;3.70;99.90;;;;;;5031322;28;20238;-90
2023/04/14 03:55:05;;;;;;;9.03;4.80;;;3.80;99.90;;;;;;5021717;28;20208;-91
2023/04/14 03:57:33;;;;;;;6.80;4.43;;;3.70;99.90;;;;;;5033181;28;20218;-92
2023/04/14 04:00:07;;;;;;;9.93;5.37;;;3.70;99.90;;;;;;5022118;28;20226;-91
2023/04/14 04:02:46;;;;;;;15.87;5.83;;;3.60;99.90;;;;;;5030260;28;20281;-91
2023/04/14 04:05:24;;;;;;;13.13;6.90;;;3.60;99.90;;;;;;5041794;28;20231;-91
2023/04/14 04:08:07;;;;;;;13.50;6.83;;;3.60;99.90;;;;;;5033969;28;20268;-92
2023/04/14 04:10:38;;;;;;;11.30;5.63;;;3.50;99.90;;;;;;5021408;28;20207;-91
2023/04/14 04:13:19;;;;;;;11.70;6.40;;;3.50;99.90;;;;;;5021603;28;20242;-91
2023/04/14 04:15:50;;;;;;;10.37;6.30;;;3.40;99.90;;;;;;5021761;28;20234;-92
2023/04/14 04:18:26;;;;;;;16.77;6.63;;;3.50;99.90;;;;;;5021876;28;20206;-91
2023/04/14 04:20:57;;;;;;;9.50;5.43;;;3.50;99.90;;;;;;5022848;28;20696;-90
2023/04/14 04:23:27;;;;;;;12.63;6.57;;;3.30;99.90;;;;;;5026011;28;20233;-91
2023/04/14 04:25:55;;;;;;;17.37;7.83;;;3.40;99.90;;;;;;5035803;28;20677;-90
2023/04/14 04:28:23;;;;;;;20.70;9.53;;;3.30;99.90;;;;;;5041830;28;20210;-91
2023/04/14 04:30:55;;;;;;;20.40;10.07;;;3.40;99.90;;;;;;5043597;28;20233;-92
2023/04/14 04:33:22;;;;;;;24.47;10.70;;;3.20;99.90;;;;;;5030511;28;20221;-91
2023/04/14 04:35:55;;;;;;;24.07;10.83;;;3.30;99.90;;;;;;5033697;28;20277;-90
2023/04/14 04:38:26;;;;;;;19.57;11.20;;;3.30;99.90;;;;;;5036290;28;20206;-90
2023/04/14 04:40:53;;;;;;;20.70;11.03;;;3.30;99.90;;;;;;5030063;28;20238;-92
2023/04/14 04:43:22;;;;;;;19.67;10.60;;;3.30;99.90;;;;;;5029795;28;20698;-91
2023/04/14 04:46:29;;;;;;;20.13;10.83;;;3.30;99.90;;;;;;5027956;28;20223;-91
2023/04/14 04:48:57;;;;;;;19.63;10.73;;;3.30;99.90;;;;;;5028015;28;20225;-93
2023/04/14 04:51:27;;;;;;;23.87;12.07;;;3.30;99.90;;;;;;5032186;28;20193;-91
2023/04/14 04:53:56;;;;;;;22.10;12.30;;;3.30;99.90;;;;;;5036463;28;20198;-92
2023/04/14 04:56:39;;;;;;;26.67;12.93;;;3.30;99.90;;;;;;5031712;28;20204;-91
2023/04/14 04:59:07;;;;;;;23.80;11.77;;;3.30;99.90;;;;;;5045738;28;20303;-91
2023/04/14 05:01:35;;;;;;;22.87;12.60;;;3.30;99.90;;;;;;5048406;28;20202;-92
2023/04/14 05:04:04;;;;;;;26.63;11.63;;;3.30;99.90;;;;;;5039056;28;20260;-89
2023/04/14 05:06:36;;;;;;;19.80;11.70;;;3.20;99.90;;;;;;5021416;28;20218;-92
2023/04/14 05:09:05;;;;;;;25.43;12.00;;;3.30;99.90;;;;;;5020733;28;20298;-89
2023/04/14 05:11:34;;;;;;;23.83;11.10;;;3.30;99.90;;;;;;5021770;28;20207;-92
2023/04/14 05:14:02;;;;;;;20.37;11.30;;;3.30;99.90;;;;;;5018639;28;20223;-91
2023/04/14 05:16:30;;;;;;;22.03;11.53;;;3.30;99.90;;;;;;5019603;28;20214;-90
2023/04/14 05:19:01;;;;;;;23.70;11.90;;;3.30;99.90;;;;;;5032139;28;20230;-90
2023/04/14 05:21:30;;;;;;;22.97;12.50;;;3.40;99.90;;;;;;5020459;28;20207;-92
2023/04/14 05:23:57;;;;;;;27.67;12.83;;;3.40;99.90;;;;;;5014870;28;20787;-90
2023/04/14 05:26:28;;;;;;;22.80;11.63;;;3.40;99.90;;;;;;5046155;28;20223;-89
2023/04/14 05:28:59;;;;;;;28.73;11.70;;;3.50;99.90;;;;;;5015556;28;20204;-89
2023/04/14 05:31:43;;;;;;;26.17;11.90;;;3.50;99.90;;;;;;5019669;28;20202;-92
2023/04/14 05:34:10;;;;;;;28.60;12.63;;;3.50;99.90;;;;;;5021211;28;20212;-93
2023/04/14 05:37:03;;;;;;;29.67;13.63;;;3.50;99.90;;;;;;5022928;28;20213;-90
2023/04/14 05:40:00;;;;;;;23.33;12.80;;;3.50;99.90;;;;;;4998718;28;20606;-92
2023/04/14 05:42:27;;;;;;;24.53;13.50;;;3.60;99.90;;;;;;5021531;28;20234;-90
2023/04/14 05:44:55;;;;;;;31.50;14.50;;;3.70;99.90;;;;;;5020993;28;20297;-91
2023/04/14 05:47:31;;;;;;;25.57;13.70;;;3.70;99.90;;;;;;5036657;28;20250;-90
2023/04/14 05:50:03;;;;;;;30.00;14.33;;;3.70;99.90;;;;;;5012647;28;20591;-89
2023/04/14 05:52:31;;;;;;;29.63;15.90;;;3.90;99.90;;;;;;5012492;28;20209;-90
2023/04/14 05:54:58;;;;;;;27.07;13.67;;;4.00;99.90;;;;;;5026342;28;20319;-90
2023/04/14 05:57:26;;;;;;;28.60;14.93;;;4.00;99.90;;;;;;5019536;28;20208;-88
2023/04/14 05:59:55;;;;;;;34.70;16.77;;;4.00;99.90;;;;;;5018953;28;20233;-91
2023/04/14 06:02:25;;;;;;;35.37;17.47;;;4.10;99.90;;;;;;5018315;28;20305;-93
2023/04/14 06:04:58;;;;;;;35.83;18.57;;;4.20;99.90;;;;;;5016148;28;20214;-89
2023/04/14 06:07:47;;;;;;;33.67;17.50;;;4.30;99.90;;;;;;5008978;28;20675;-92
2023/04/14 06:10:30;;;;;;;35.03;18.13;;;4.40;99.90;;;;;;5018917;28;20413;-88
2023/04/14 06:13:07;;;;;;;32.83;17.90;;;4.40;99.90;;;;;;5015718;28;20241;-91
2023/04/14 06:15:38;;;;;;;36.27;18.90;;;4.50;99.90;;;;;;5016541;28;20210;-88
2023/04/14 06:18:05;;;;;;;34.93;17.37;;;4.60;99.90;;;;;;5018171;28;20271;-90
2023/04/14 06:20:51;;;;;;;34.57;18.73;;;4.60;99.90;;;;;;5018216;28;20225;-90
2023/04/14 06:23:41;;;;;;;35.67;18.27;;;4.70;99.90;;;;;;5017187;28;20258;-91
2023/04/14 06:26:22;;;;;;;46.10;22.20;;;4.80;99.90;;;;;;5075338;22;20209;-88
2023/04/14 06:28:51;;;;;;;32.57;17.47;;;5.60;99.90;;;;;;4991522;28;20317;-86
2023/04/14 06:31:18;;;;;;;23.20;13.40;;;6.90;99.90;;;;;;4992841;28;20213;-88
2023/04/14 06:33:48;;;;;;;16.13;10.77;;;8.10;99.90;;;;;;4986942;28;20761;-89
2023/04/14 06:36:20;;;;;;;15.60;8.27;;;9.40;99.90;;;;;;5009092;28;20509;-89
2023/04/14 06:38:50;;;;;;;11.03;7.90;;;11.60;99.90;;;;;;4997030;28;20216;-89
2023/04/14 06:41:19;;;;;;;15.43;8.43;;;11.70;99.90;;;;;;4991983;28;20211;-89
2023/04/14 06:43:49;;;;;;;11.30;7.63;;;12.80;99.90;;;;;;4996849;28;20289;-88
2023/04/14 06:46:16;;;;;;;16.67;8.57;;;13.90;99.90;;;;;;4995631;28;20846;-88
2023/04/14 06:48:46;;;;;;;14.17;8.17;;;14.80;99.90;;;;;;5006010;28;20206;-91
2023/04/14 06:51:22;;;;;;;14.70;8.00;;;15.50;99.90;;;;;;4999623;28;20401;-92
2023/04/14 06:54:01;;;;;;;14.00;7.10;;;16.10;99.90;;;;;;5015583;28;20273;-91
2023/04/14 06:56:36;;;;;;;9.27;7.28;;;16.60;99.90;;;;;;4984892;28;20187;-88
2023/04/14 06:59:03;;;;;;;17.20;7.57;;;16.90;99.90;;;;;;5006590;28;20215;-89
2023/04/14 07:01:37;;;;;;;13.30;7.35;;;17.30;99.90;;;;;;4999636;28;20202;-91
2023/04/14 07:04:25;;;;;;;12.13;6.93;;;17.80;99.90;;;;;;5003573;28;20228;-93
2023/04/14 07:07:13;;;;;;;16.67;6.75;;;18.00;99.90;;;;;;4996310;28;20278;-92
2023/04/14 07:10:02;;;;;;;8.18;6.25;;;18.40;99.90;;;;;;5001293;28;20292;-93
2023/04/14 07:12:59;;;;;;;11.13;6.43;;;18.70;99.90;;;;;;4996935;28;20222;-93
2023/04/14 07:15:46;;;;;;;15.55;6.78;;;19.20;99.90;;;;;;5014504;28;20220;-92
2023/04/14 07:18:17;;;;;;;9.52;5.70;;;20.00;99.90;;;;;;5017477;28;20285;-93
2023/04/14 07:20:54;;;;;;;9.57;6.25;;;20.10;99.90;;;;;;5000242;28;20241;-93
2023/04/14 07:23:21;;;;;;;10.52;6.72;;;20.20;99.90;;;;;;4995962;28;20233;-95
2023/04/14 07:25:58;;;;;;;12.05;6.90;;;20.50;99.90;;;;;;5010145;28;20582;-96
2023/04/14 07:28:28;;;;;;;12.00;6.53;;;21.00;99.90;;;;;;5014374;28;20745;-89
2023/04/14 07:30:59;;;;;;;13.40;6.63;;;20.70;99.90;;;;;;4994874;28;20226;-89
2023/04/14 07:33:30;;;;;;;11.27;6.20;;;20.80;99.90;;;;;;4997188;28;20203;-87
2023/04/14 07:35:59;;;;;;;12.65;6.35;;;20.80;99.90;;;;;;4996258;28;20207;-90
2023/04/14 07:38:32;;;;;;;13.95;5.45;;;20.90;99.90;;;;;;4998831;28;20210;-91
2023/04/14 07:41:11;;;;;;;12.13;5.90;;;21.00;99.90;;;;;;4997698;28;20711;-90
2023/04/14 07:43:38;;;;;;;12.10;5.20;;;21.00;99.90;;;;;;5009191;28;20279;-88
2023/04/14 07:46:07;;;;;;;9.75;5.47;;;21.10;99.90;;;;;;4991390;28;20210;-91
2023/04/14 07:48:36;;;;;;;9.10;5.07;;;21.30;99.90;;;;;;4993534;28;20258;-90
2023/04/14 07:51:11;;;;;;;11.25;5.35;;;21.30;99.90;;;;;;5004439;28;20705;-88
2023/04/14 07:53:47;;;;;;;8.93;4.88;;;21.30;99.90;;;;;;4994698;28;20277;-90
2023/04/14 07:56:22;;;;;;;9.68;4.32;;;21.50;99.90;;;;;;4995938;28;20206;-90
2023/04/14 07:58:50;;;;;;;8.82;4.30;;;21.60;99.90;;;;;;4988494;28;20214;-89
2023/04/14 08:01:27;;;;;;;12.43;4.85;;;21.70;99.90;;;;;;4998130;28;20225;-88
2023/04/14 08:03:54;;;;;;;8.75;4.07;;;21.80;99.90;;;;;;4997836;28;20211;-89
2023/04/14 08:06:22;;;;;;;12.70;4.13;;;21.70;99.00;;;;;;5013780;28;20213;-92
2023/04/14 08:08:52;;;;;;;9.55;4.68;;;21.60;98.90;;;;;;5002489;28;20205;-90
2023/04/14 08:11:19;;;;;;;11.27;3.92;;;21.70;99.20;;;;;;5001608;28;20210;-91
2023/04/14 08:13:48;;;;;;;12.45;4.32;;;21.70;99.00;;;;;;4999164;28;20222;-94
2023/04/14 08:16:18;;;;;;;10.18;4.38;;;21.80;97.90;;;;;;4998637;28;20206;-90
2023/04/14 08:18:48;;;;;;;9.57;3.67;;;22.00;97.50;;;;;;4995417;28;20210;-91
2023/04/14 08:21:19;;;;;;;8.93;3.97;;;22.10;97.50;;;;;;5003425;28;20608;-90
2023/04/14 08:24:02;;;;;;;8.48;3.33;;;22.20;96.90;;;;;;4997500;28;20245;-91
2023/04/14 08:26:34;;;;;;;8.43;3.88;;;22.10;95.70;;;;;;5006900;28;20334;-91
2023/04/14 08:29:02;;;;;;;12.38;3.92;;;22.00;96.70;;;;;;5015244;28;20202;-90
2023/04/14 08:31:31;;;;;;;8.20;3.75;;;21.80;95.60;;;;;;5001766;28;20213;-90
2023/04/14 08:34:08;;;;;;;10.70;3.60;;;21.70;95.30;;;;;;5000817;28;20206;-94
2023/04/14 08:36:37;;;;;;;8.68;3.25;;;21.60;95.10;;;;;;4996328;28;20207;-87
2023/04/14 08:39:05;;;;;;;8.73;3.50;;;21.70;95.80;;;;;;4995750;28;20915;-94
2023/04/14 08:41:38;;;;;;;9.25;3.25;;;21.80;94.60;;;;;;4988003;28;20387;-90
2023/04/14 08:44:07;;;;;;;8.75;2.78;;;21.50;93.60;;;;;;4982812;28;20219;-92
2023/04/14 08:46:47;;;;;;;9.27;3.05;;;20.90;94.00;;;;;;4999025;28;20252;-89
2023/04/14 08:49:43;;;;;;;9.05;2.97;;;21.20;95.00;;;;;;4996667;28;20298;-90
2023/04/14 08:52:17;;;;;;;7.63;2.72;;;21.00;93.70;;;;;;4998109;28;20841;-90
2023/04/14 08:55:30;;;;;;;8.57;3.03;;;20.90;93.50;;;;;;4992256;28;20213;-93
2023/04/14 08:57:59;;;;;;;7.95;2.75;;;20.40;93.60;;;;;;4996302;28;20229;-93
2023/04/14 09:00:40;;;;;;;6.70;1.90;;;20.10;94.20;;;;;;5000447;28;20226;-90
2023/04/14 09:03:24;;;;;;;5.07;3.03;;;19.90;93.40;;;;;;5001696;28;20265;-90
2023/04/14 09:05:56;;;;;;;8.77;2.83;;;19.90;94.60;;;;;;5007911;28;20223;-92
2023/04/14 09:08:35;;;;;;;8.30;2.65;;;20.10;95.20;;;;;;4995077;28;20260;-89
2023/04/14 09:11:18;;;;;;;7.65;2.45;;;20.10;93.70;;;;;;4997311;28;20211;-89
2023/04/14 09:13:49;;;;;;;7.07;2.40;;;20.00;94.10;;;;;;4999716;28;20651;-89
2023/04/14 09:16:31;;;;;;;10.98;2.60;;;19.90;94.80;;;;;;4999070;28;20206;-91
2023/04/14 09:19:10;;;;;;;6.28;2.00;;;19.90;94.70;;;;;;5005617;28;20218;-90
2023/04/14 09:21:47;;;;;;;7.97;2.05;;;20.00;94.20;;;;;;4993740;28;20255;-93
2023/04/14 09:24:29;;;;;;;6.22;2.42;;;20.00;94.30;;;;;;5010292;28;20245;-93
2023/04/14 09:27:07;;;;;;;6.97;2.03;;;20.10;94.90;;;;;;5002905;28;20238;-93
2023/04/14 09:29:39;;;;;;;6.38;2.25;;;20.00;93.80;;;;;;5027303;28;20436;-89
2023/04/14 09:32:08;;;;;;;5.85;1.70;;;20.00;93.30;;;;;;5019501;28;20655;-91
2023/04/14 09:34:53;;;;;;;7.18;2.03;;;19.70;93.40;;;;;;5028956;28;20205;-91
2023/04/14 09:37:42;;;;;;;8.98;2.22;;;19.60;93.10;;;;;;5034042;28;20255;-91
2023/04/14 09:40:28;;;;;;;8.80;2.40;;;19.40;92.60;;;;;;5037766;28;20230;-89
2023/04/14 09:43:21;;;;;;;6.25;1.95;;;19.10;93.00;;;;;;5032193;28;20712;-93
2023/04/14 09:45:49;;;;;;;6.38;1.50;;;19.00;92.70;;;;;;5019903;28;20651;-92
2023/04/14 09:48:21;;;;;;;5.35;1.73;;;18.80;92.70;;;;;;5011324;28;20198;-92
2023/04/14 09:51:11;;;;;;;8.48;2.03;;;18.80;92.90;;;;;;5019805;28;20201;-91
2023/04/14 09:53:44;;;;;;;4.15;1.45;;;18.70;92.60;;;;;;5000766;28;20278;-89
2023/04/14 09:56:17;;;;;;;4.65;1.38;;;19.00;92.90;;;;;;5015341;28;20293;-89
2023/04/14 09:59:00;;;;;;;9.30;1.70;;;19.00;92.50;;;;;;5015552;28;20214;-86
2023/04/14 10:01:31;;;;;;;6.65;1.73;;;19.00;92.30;;;;;;5007770;28;20213;-88
2023/04/14 10:04:01;;;;;;;5.05;1.50;;;18.90;92.30;;;;;;5019906;28;20206;-89
2023/04/14 10:06:32;;;;;;;4.05;1.50;;;18.90;92.10;;;;;;5036018;28;20547;-90
2023/04/14 10:08:59;;;;;;;6.05;1.42;;;18.80;92.10;;;;;;5017331;28;20870;-89
2023/04/14 10:11:35;;;;;;;3.83;1.45;;;18.80;92.40;;;;;;5026694;28;20220;-88
2023/04/14 10:14:05;;;;;;;6.90;2.08;;;18.70;92.10;;;;;;5030700;28;20197;-91
2023/04/14 10:16:47;;;;;;;5.72;1.63;;;18.70;92.00;;;;;;5022552;28;20202;-91
2023/04/14 10:19:18;;;;;;;5.80;1.73;;;18.50;92.00;;;;;;5016864;28;20659;-90
2023/04/14 10:21:45;;;;;;;5.15;1.52;;;18.30;91.40;;;;;;5030902;28;20257;-90
2023/04/14 10:24:20;;;;;;;6.95;1.92;;;17.90;91.50;;;;;;5014844;28;20320;-90
2023/04/14 10:26:48;;;;;;;7.90;1.70;;;17.80;92.40;;;;;;5002423;28;20201;-91
2023/04/14 10:29:26;;;;;;;6.38;1.67;;;17.80;92.30;;;;;;5030488;28;20222;-89
2023/04/14 10:32:17;;;;;;;3.78;1.80;;;17.70;92.40;;;;;;5012926;28;20225;-91
2023/04/14 10:35:19;;;;;;;6.50;2.00;;;17.60;93.00;;;;;;5035497;28;20202;-89
2023/04/14 10:37:54;;;;;;;7.40;1.92;;;17.50;93.40;;;;;;4982884;28;20226;-92
2023/04/14 10:40:23;;;;;;;9.65;2.35;;;17.40;92.90;;;;;;5015753;28;20229;-92
2023/04/14 10:42:52;;;;;;;4.72;1.75;;;17.30;93.10;;;;;;5019008;28;20202;-90
2023/04/14 10:45:20;;;;;;;6.63;2.00;;;17.20;93.20;;;;;;5018381;28;20255;-90
2023/04/14 10:47:49;;;;;;;10.52;1.80;;;17.10;93.50;;;;;;5018630;28;20616;-90
2023/04/14 10:50:23;;;;;;;7.15;2.28;;;17.00;93.60;;;;;;5019167;28;20198;-92
2023/04/14 10:53:16;;;;;;;5.40;1.92;;;16.90;93.80;;;;;;5018961;28;20248;-90
2023/04/14 10:55:55;;;;;;;12.15;2.10;;;16.80;93.90;;;;;;5018958;28;20193;-90
2023/04/14 10:58:29;;;;;;;5.75;1.90;;;16.60;93.70;;;;;;5017602;28;20831;-90
2023/04/14 11:01:30;;;;;;;9.25;2.30;;;16.40;93.70;;;;;;5017299;28;20705;-91
2023/04/14 11:04:17;;;;;;;4.00;1.58;;;16.60;94.20;;;;;;5019288;28;20605;-90
2023/04/14 11:06:52;;;;;;;8.20;2.03;;;16.60;93.80;;;;;;5018982;28;20213;-89
2023/04/14 11:09:31;;;;;;;5.03;2.05;;;16.80;94.20;;;;;;5008653;28;20608;-91
2023/04/14 11:12:04;;;;;;;7.13;1.77;;;16.90;94.10;;;;;;5012954;28;20231;-90
2023/04/14 11:14:36;;;;;;;6.97;1.90;;;17.10;94.30;;;;;;5013223;28;20217;-89
2023/04/14 11:17:18;;;;;;;5.68;1.90;;;17.20;94.60;;;;;;5017613;28;20605;-90
2023/04/14 11:19:47;;;;;;;5.88;2.65;;;17.30;94.00;;;;;;5018223;28;20216;-90
2023/04/14 11:22:43;;;;;;;6.22;1.50;;;17.40;93.90;;;;;;5017689;28;20226;-92
2023/04/14 11:25:32;;;;;;;3.60;1.60;;;17.60;93.70;;;;;;5015852;28;20218;-89
2023/04/14 11:28:03;;;;;;;6.45;1.85;;;17.50;93.70;;;;;;5006769;28;20254;-90
2023/04/14 11:30:39;;;;;;;4.60;2.05;;;17.50;94.00;;;;;;4999195;28;20237;-91
2023/04/14 11:33:21;;;;;;;6.40;1.98;;;17.50;93.50;;;;;;5014996;28;20202;-90
2023/04/14 11:35:51;;;;;;;7.00;2.40;;;17.30;92.90;;;;;;5013729;28;20228;-89
2023/04/14 11:38:25;;;;;;;6.55;1.73;;;17.20;93.40;;;;;;5015345;28;20202;-92
2023/04/14 11:40:53;;;;;;;7.63;2.13;;;17.20;93.90;;;;;;5002922;28;20230;-94
2023/04/14 11:43:21;;;;;;;7.57;2.40;;;17.20;94.60;;;;;;5024541;28;20202;-89
2023/04/14 11:45:53;;;;;;;10.93;2.65;;;17.00;94.60;;;;;;5009771;28;20211;-90
2023/04/14 11:48:29;;;;;;;6.93;1.98;;;17.10;94.70;;;;;;5015114;28;20567;-92
2023/04/14 11:51:02;;;;;;;9.60;2.10;;;17.00;94.60;;;;;;4984313;28;20206;-91
2023/04/14 11:53:30;;;;;;;6.67;1.90;;;16.90;94.80;;;;;;5002247;28;20194;-88
2023/04/14 11:56:00;;;;;;;7.50;2.40;;;17.00;95.30;;;;;;5007088;28;20703;-93
2023/04/14 11:58:27;;;;;;;9.88;3.45;;;17.00;95.00;;;;;;5012777;28;20191;-91
2023/04/14 12:01:13;;;;;;;5.40;2.05;;;17.10;94.80;;;;;;4994312;28;20222;-91
2023/04/14 12:03:41;;;;;;;7.97;2.22;;;17.20;94.80;;;;;;5010038;28;20272;-92
2023/04/14 12:06:15;;;;;;;10.48;2.45;;;17.10;94.80;;;;;;5020139;28;20334;-91
2023/04/14 12:08:49;;;;;;;7.43;2.20;;;17.10;94.60;;;;;;5028549;28;20229;-89
2023/04/14 12:11:16;;;;;;;6.57;2.47;;;16.90;94.80;;;;;;5029144;28;20238;-93
2023/04/14 12:13:47;;;;;;;7.30;2.20;;;16.70;94.70;;;;;;5020473;28;20443;-90
2023/04/14 12:16:18;;;;;;;7.20;2.20;;;16.70;95.60;;;;;;5025143;28;20985;-89
2023/04/14 12:18:46;;;;;;;7.63;1.90;;;16.80;95.40;;;;;;5034137;28;20202;-91
2023/04/14 12:21:18;;;;;;;4.88;1.83;;;16.90;95.30;;;;;;5024094;28;20232;-91
2023/04/14 12:23:47;;;;;;;5.05;1.70;;;17.10;95.60;;;;;;5017380;28;20254;-88
2023/04/14 12:26:15;;;;;;;4.90;1.90;;;17.30;95.80;;;;;;5011028;28;20329;-87
2023/04/14 12:28:44;;;;;;;6.75;2.40;;;17.60;95.20;;;;;;5007424;28;20235;-88
2023/04/14 12:31:29;;;;;;;5.07;1.73;;;17.80;94.10;;;;;;5010940;28;20309;-88
2023/04/14 12:34:07;;;;;;;6.25;2.03;;;17.90;92.70;;;;;;4984709;28;20305;-92
2023/04/14 12:36:39;;;;;;;6.90;2.10;;;18.00;92.30;;;;;;5024613;28;20227;-89
2023/04/14 12:39:24;;;;;;;3.72;1.70;;;18.00;93.00;;;;;;4994910;28;20195;-90
2023/04/14 12:42:06;;;;;;;3.90;1.58;;;18.00;92.80;;;;;;5010901;28;20217;-92
2023/04/14 12:44:47;;;;;;;;;;;;;;;;;;;;;
2023/04/14 12:47:33;;;;;;;3.90;1.73;;;18.10;92.40;;;;;;5024671;28;20202;-89
2023/04/14 12:50:22;;;;;;;3.78;1.52;;;18.30;92.40;;;;;;4994061;28;20252;-90
2023/04/14 12:52:56;;;;;;;4.93;1.88;;;18.50;91.90;;;;;;5002877;28;20198;-90
2023/04/14 12:55:30;;;;;;;6.63;1.75;;;18.60;92.10;;;;;;4990538;28;20203;-90
2023/04/14 12:58:03;;;;;;;7.90;1.98;;;18.40;91.50;;;;;;5002052;28;20217;-95
2023/04/14 13:00:41;;;;;;;5.97;1.83;;;18.40;91.20;;;;;;5000561;28;20209;-88
2023/04/14 13:03:14;;;;;;;5.60;1.77;;;18.20;91.30;;;;;;4998528;28;20202;-90
2023/04/14 13:05:41;;;;;;;4.18;1.42;;;18.00;91.50;;;;;;4993435;28;20264;-92
2023/04/14 13:08:13;;;;;;;3.63;1.45;;;18.00;91.50;;;;;;5002987;28;20209;-91
2023/04/14 13:10:42;;;;;;;4.47;1.77;;;17.80;91.30;;;;;;5002550;28;20218;-91
2023/04/14 13:13:14;;;;;;;6.75;2.20;;;17.70;91.10;;;;;;5001074;28;20202;-92
2023/04/14 13:15:45;;;;;;;6.57;1.90;;;17.80;91.40;;;;;;5003818;28;20222;-88
2023/04/14 13:18:32;;;;;;;3.50;1.70;;;17.90;91.80;;;;;;5014744;28;20198;-87
2023/04/14 13:21:04;;;;;;;4.75;1.60;;;17.90;90.60;;;;;;4993007;28;20227;-87
2023/04/14 13:23:35;;;;;;;3.78;1.50;;;17.80;90.50;;;;;;4997389;28;20288;-89
2023/04/14 13:26:12;;;;;;;5.25;1.55;;;17.90;90.90;;;;;;4998344;28;20894;-89